createdAt,value
2023-03-16T00:02:30.289Z,4.92
2023-03-16T00:07:32.644Z,4.94
2023-03-16T00:12:34.913Z,4.99
2023-03-16T00:17:37.417Z,5.03
2023-03-16T00:22:39.511Z,4.94
2023-03-16T00:27:41.804Z,4.85
2023-03-16T00:32:44.077Z,4.71
2023-03-16T00:37:46.349Z,4.66
2023-03-16T00:42:48.481Z,4.68
2023-03-16T00:47:50.593Z,4.68
2023-03-16T00:52:53.841Z,4.64
2023-03-16T00:57:56.120Z,4.56
2023-03-16T01:02:58.272Z,4.63
2023-03-16T01:08:02.843Z,4.52
2023-03-16T01:13:04.966Z,4.41
2023-03-16T01:18:07.187Z,4.58
2023-03-16T01:23:09.391Z,4.57
2023-03-16T01:28:13.611Z,4.57
2023-03-16T01:33:17.146Z,4.56
2023-03-16T01:38:19.739Z,4.60
2023-03-16T01:43:24.462Z,4.64
2023-03-16T01:48:29.426Z,4.61
2023-03-16T01:53:33.626Z,4.63
2023-03-16T01:58:37.804Z,4.65
2023-03-16T02:03:41.898Z,4.69
2023-03-16T02:08:55.524Z,4.72
2023-03-16T02:14:05.336Z,4.76
2023-03-16T02:19:13.307Z,4.77
2023-03-16T02:24:15.735Z,4.58
2023-03-16T02:30:01.718Z,4.88
2023-03-16T02:35:10.599Z,4.75
2023-03-16T02:40:23.869Z,4.83
2023-03-16T02:45:33.673Z,4.85
2023-03-16T02:50:37.184Z,4.78
2023-03-16T02:55:39.517Z,4.80
2023-03-16T03:00:43.137Z,4.83
2023-03-16T03:05:46.524Z,4.79
2023-03-16T03:10:49.337Z,4.81
2023-03-16T03:15:52.851Z,4.87
2023-03-16T03:20:57.903Z,4.82
2023-03-16T03:26:00.668Z,4.84
2023-03-16T03:31:03.899Z,4.85
2023-03-16T03:36:06.413Z,4.92
2023-03-16T03:41:11.605Z,4.99
2023-03-16T03:46:15.238Z,4.99
2023-03-16T03:51:17.664Z,5.02
2023-03-16T03:56:33.200Z,4.96
2023-03-16T04:01:35.594Z,4.95
2023-03-16T04:06:37.803Z,4.88
2023-03-16T04:11:40.385Z,4.85
2023-03-16T04:16:44.440Z,4.86
2023-03-16T04:21:48.873Z,4.76
2023-03-16T04:26:54.618Z,4.73
2023-03-16T04:31:57.518Z,4.69
2023-03-16T04:37:02.486Z,4.63
2023-03-16T04:42:06.959Z,4.53
2023-03-16T04:47:09.302Z,4.50
2023-03-16T04:52:13.918Z,4.53
2023-03-16T04:57:19.483Z,4.53
2023-03-16T05:02:25.024Z,4.50
2023-03-16T05:07:27.786Z,4.47
2023-03-16T05:12:31.389Z,4.45
2023-03-16T05:17:38.525Z,4.36
2023-03-16T05:22:46.358Z,4.47
2023-03-16T05:28:09.414Z,4.43
2023-03-16T05:33:18.578Z,4.46
2023-03-16T05:38:25.522Z,4.54
2023-03-16T05:43:31.573Z,4.56
2023-03-16T05:48:35.972Z,4.37
2023-03-16T05:53:39.096Z,4.44
2023-03-16T05:58:49.435Z,4.58
2023-03-16T06:03:52.324Z,4.64
2023-03-16T06:08:57.977Z,4.67
2023-03-16T06:14:02.332Z,4.71
2023-03-16T06:19:04.544Z,4.84
2023-03-16T06:24:09.367Z,4.83
2023-03-16T06:29:11.999Z,4.85
2023-03-16T06:34:15.864Z,4.87
2023-03-16T06:39:18.243Z,4.84
2023-03-16T06:44:23.660Z,4.81
2023-03-16T06:49:38.173Z,4.80
2023-03-16T06:54:48.728Z,4.84
2023-03-16T06:59:52.827Z,4.80
2023-03-16T07:04:54.992Z,4.83
2023-03-16T07:09:57.243Z,4.94
2023-03-16T07:14:59.445Z,5.02
2023-03-16T07:20:05.779Z,5.06
2023-03-16T07:25:09.155Z,5.18
2023-03-16T07:30:14.426Z,5.27
2023-03-16T07:35:19.125Z,5.33
2023-03-16T07:40:21.938Z,5.49
2023-03-16T07:45:24.111Z,5.59
2023-03-16T07:50:26.757Z,5.66
2023-03-16T07:55:31.847Z,5.77
2023-03-16T08:00:34.630Z,6.00
2023-03-16T08:05:36.983Z,6.26
2023-03-16T08:10:48.681Z,6.58
2023-03-16T08:15:58.770Z,6.84
2023-03-16T08:21:08.709Z,7.13
2023-03-16T08:26:11.133Z,7.32
2023-03-16T08:31:15.680Z,7.45
2023-03-16T08:36:30.853Z,7.36
2023-03-16T08:41:34.868Z,7.26
2023-03-16T08:46:42.624Z,7.23
2023-03-16T08:51:45.260Z,7.14
2023-03-16T08:56:47.355Z,7.10
2023-03-16T09:01:49.717Z,7.12
2023-03-16T09:07:05.879Z,7.01
2023-03-16T09:12:10.507Z,6.85
2023-03-16T09:17:12.978Z,6.72
2023-03-16T09:22:15.184Z,6.69
2023-03-16T09:27:18.283Z,6.79
2023-03-16T09:32:20.535Z,6.93
2023-03-16T09:37:23.264Z,7.04
2023-03-16T09:42:36.662Z,7.24
2023-03-16T09:47:40.832Z,7.19
2023-03-16T09:53:18.874Z,7.53
2023-03-16T09:58:22.608Z,7.36
2023-03-16T10:04:01.159Z,7.68
2023-03-16T10:09:29.247Z,7.75
2023-03-16T10:14:48.504Z,7.79
2023-03-16T10:19:58.172Z,7.69
2023-03-16T10:25:25.069Z,8.04
2023-03-16T10:30:36.379Z,7.93
2023-03-16T10:35:58.090Z,8.00
2023-03-16T10:41:00.920Z,7.92
2023-03-16T10:46:03.282Z,7.95
2023-03-16T10:51:12.876Z,8.09
2023-03-16T10:56:25.418Z,8.24
2023-03-16T11:01:29.173Z,8.05
2023-03-16T11:06:33.122Z,8.11
2023-03-16T11:11:36.276Z,8.08
2023-03-16T11:16:48.072Z,8.31
2023-03-16T11:22:08.521Z,8.15
2023-03-16T11:27:45.031Z,8.12
2023-03-16T11:32:53.607Z,8.05
2023-03-16T11:38:15.872Z,7.97
2023-03-16T11:43:53.398Z,8.04
2023-03-16T11:49:10.839Z,7.91
2023-03-16T11:54:15.833Z,7.81
2023-03-16T11:59:46.247Z,7.83
2023-03-16T12:05:22.555Z,7.73
2023-03-16T12:10:43.796Z,7.60
2023-03-16T12:15:51.969Z,7.34
2023-03-16T12:20:58.815Z,7.33
2023-03-16T12:26:01.362Z,7.10
2023-03-16T12:31:37.685Z,7.13
2023-03-16T12:37:14.785Z,7.05
2023-03-16T12:42:29.534Z,6.92
2023-03-16T12:47:52.436Z,6.91
2023-03-16T12:52:54.944Z,6.65
2023-03-16T12:58:05.270Z,6.84
2023-03-16T13:03:15.723Z,6.83
2023-03-16T13:08:20.749Z,6.70
2023-03-16T13:13:25.726Z,6.63
2023-03-16T13:18:35.877Z,6.70
2023-03-16T13:23:58.602Z,6.69
2023-03-16T13:29:00.801Z,6.46
2023-03-16T13:34:04.143Z,6.46
2023-03-16T13:39:27.825Z,6.69
2023-03-16T13:44:30.743Z,6.54
2023-03-16T13:49:32.956Z,6.56
2023-03-16T13:54:37.499Z,6.63
2023-03-16T13:59:42.074Z,6.51
2023-03-16T14:04:44.240Z,6.47
2023-03-16T14:09:47.054Z,6.41
2023-03-16T14:14:55.711Z,6.49
2023-03-16T14:20:01.025Z,6.34
2023-03-16T14:25:05.818Z,6.31
2023-03-16T14:30:14.776Z,6.38
2023-03-16T14:35:22.038Z,6.29
2023-03-16T14:40:32.418Z,6.26
2023-03-16T14:45:36.757Z,6.11
2023-03-16T14:50:39.456Z,6.07
2023-03-16T14:55:42.078Z,6.06
2023-03-16T15:00:52.771Z,6.04
2023-03-16T15:05:56.035Z,6.02
2023-03-16T15:11:03.200Z,6.02
2023-03-16T15:16:06.610Z,5.90
2023-03-16T15:21:14.703Z,5.93
2023-03-16T15:26:25.059Z,5.82
2023-03-16T15:31:27.559Z,5.70
2023-03-16T15:36:29.702Z,5.69
2023-03-16T15:41:38.310Z,5.71
2023-03-16T15:46:48.083Z,5.64
2023-03-16T15:51:51.500Z,5.66
2023-03-16T15:56:56.067Z,5.63
2023-03-16T16:01:58.449Z,5.52
2023-03-16T16:07:03.032Z,5.51
2023-03-16T16:12:05.466Z,5.49
2023-03-16T16:17:36.514Z,5.64
2023-03-16T16:22:46.628Z,5.47
2023-03-16T16:27:49.289Z,5.44
2023-03-16T16:32:51.794Z,5.40
2023-03-16T16:37:54.080Z,5.27
2023-03-16T16:42:56.424Z,5.19
2023-03-16T16:47:59.406Z,5.20
2023-03-16T16:53:01.732Z,5.19
2023-03-16T16:58:07.797Z,5.23
2023-03-16T17:03:28.434Z,5.38
2023-03-16T17:08:30.534Z,5.22
2023-03-16T17:13:42.079Z,5.34
2023-03-16T17:18:46.122Z,5.15
2023-03-16T17:23:49.190Z,5.18
2023-03-16T17:28:57.347Z,5.18
2023-03-16T17:33:59.538Z,5.08
2023-03-16T17:39:03.323Z,5.03
2023-03-16T17:44:09.260Z,5.00
2023-03-16T17:49:17.836Z,5.05
2023-03-16T17:54:20.161Z,4.96
2023-03-16T17:59:23.343Z,4.90
2023-03-16T18:04:26.469Z,4.87
2023-03-16T18:09:28.882Z,4.78
2023-03-16T18:14:36.464Z,4.81
2023-03-16T18:19:39.868Z,4.69
2023-03-16T18:24:43.161Z,4.67
2023-03-16T18:29:47.099Z,4.66
2023-03-16T18:34:50.773Z,4.65
2023-03-16T18:39:54.353Z,4.61
2023-03-16T18:44:57.517Z,4.59
2023-03-16T18:50:00.476Z,4.56
2023-03-16T18:55:02.627Z,4.51
2023-03-16T19:00:06.949Z,4.51
2023-03-16T19:05:18.754Z,4.58
2023-03-16T19:10:31.858Z,4.53
2023-03-16T19:15:35.716Z,4.45
2023-03-16T19:20:38.358Z,4.40
2023-03-16T19:25:42.609Z,4.42
2023-03-16T19:30:46.780Z,4.40
2023-03-16T19:35:52.070Z,4.42
2023-03-16T19:40:58.092Z,4.42
2023-03-16T19:46:00.262Z,4.35
2023-03-16T19:51:02.415Z,4.30
2023-03-16T19:56:05.274Z,4.28
2023-03-16T20:01:17.643Z,4.42
2023-03-16T20:06:22.391Z,4.33
2023-03-16T20:11:32.312Z,4.43
2023-03-16T20:16:35.788Z,4.32
2023-03-16T20:21:37.962Z,4.23
2023-03-16T20:26:40.115Z,4.20
2023-03-16T20:31:42.441Z,4.13
2023-03-16T20:36:45.563Z,4.13
2023-03-16T20:41:48.130Z,4.09
2023-03-16T20:46:50.307Z,4.05
2023-03-16T20:51:52.462Z,4.04
2023-03-16T20:56:55.402Z,4.10
2023-03-16T21:01:57.560Z,4.15
2023-03-16T21:06:59.713Z,4.12
2023-03-16T21:12:01.793Z,4.16
2023-03-16T21:17:03.920Z,4.17
2023-03-16T21:22:23.863Z,4.30
2023-03-16T21:27:29.761Z,4.22
2023-03-16T21:32:33.843Z,4.13
2023-03-16T21:37:35.964Z,4.07
2023-03-16T21:42:38.064Z,4.06
2023-03-16T21:47:40.753Z,4.08
2023-03-16T21:52:43.445Z,4.09
2023-03-16T21:57:46.191Z,4.02
2023-03-16T22:02:50.968Z,4.09
2023-03-16T22:07:53.079Z,4.04
2023-03-16T22:12:56.814Z,4.05
2023-03-16T22:18:04.798Z,4.08
2023-03-16T22:23:07.556Z,4.00
2023-03-16T22:28:12.699Z,4.09
2023-03-16T22:33:23.690Z,4.12
2023-03-16T22:38:26.456Z,4.03
2023-03-16T22:43:35.412Z,4.11
2023-03-16T22:48:37.478Z,4.00
2023-03-16T22:53:46.067Z,4.09
2023-03-16T22:58:51.550Z,4.06
2023-03-16T23:03:53.863Z,4.00
2023-03-16T23:08:56.500Z,4.01
2023-03-16T23:13:59.872Z,4.00
2023-03-16T23:25:37.041Z,4.00
2023-03-16T23:30:40.281Z,4.04
2023-03-16T23:35:46.431Z,3.95
2023-03-16T23:40:49.554Z,3.92
2023-03-16T23:45:52.303Z,3.92
2023-03-16T23:50:55.926Z,3.95
2023-03-16T23:55:58.151Z,3.81
